sensor_id;sensor_type;location;lat;lon;timestamp;P1;durP1;ratioP1;P2;durP2;ratioP2
16626;SDS011;8427;52.204;7.202;2023-04-06T00:02:03;52.75;;;40.60;;
16626;SDS011;8427;52.204;7.202;2023-04-06T00:04:31;48.15;;;40.17;;
16626;SDS011;8427;52.204;7.202;2023-04-06T00:06:59;45.00;;;40.20;;
16626;SDS011;8427;52.204;7.202;2023-04-06T00:09:29;52.28;;;40.70;;
16626;SDS011;8427;52.204;7.202;2023-04-06T00:11:56;49.80;;;39.45;;
16626;SDS011;8427;52.204;7.202;2023-04-06T00:14:24;44.20;;;39.70;;
16626;SDS011;8427;52.204;7.202;2023-04-06T00:16:52;45.10;;;40.20;;
16626;SDS011;8427;52.204;7.202;2023-04-06T00:19:21;44.88;;;40.10;;
16626;SDS011;8427;52.204;7.202;2023-04-06T00:21:49;49.88;;;40.72;;
16626;SDS011;8427;52.204;7.202;2023-04-06T00:24:17;44.92;;;40.20;;
16626;SDS011;8427;52.204;7.202;2023-04-06T00:26:46;46.80;;;40.38;;
16626;SDS011;8427;52.204;7.202;2023-04-06T00:29:14;43.72;;;39.80;;
16626;SDS011;8427;52.204;7.202;2023-04-06T00:31:42;44.70;;;40.00;;
16626;SDS011;8427;52.204;7.202;2023-04-06T00:34:10;50.33;;;40.50;;
16626;SDS011;8427;52.204;7.202;2023-04-06T00:36:38;47.53;;;38.60;;
16626;SDS011;8427;52.204;7.202;2023-04-06T00:39:06;40.43;;;37.07;;
16626;SDS011;8427;52.204;7.202;2023-04-06T00:41:35;43.95;;;39.17;;
16626;SDS011;8427;52.204;7.202;2023-04-06T00:44:04;43.95;;;39.50;;
16626;SDS011;8427;52.204;7.202;2023-04-06T00:46:32;43.45;;;39.40;;
16626;SDS011;8427;52.204;7.202;2023-04-06T00:49:00;51.13;;;40.30;;
16626;SDS011;8427;52.204;7.202;2023-04-06T00:51:28;44.53;;;40.00;;
16626;SDS011;8427;52.204;7.202;2023-04-06T00:53:56;54.60;;;40.60;;
16626;SDS011;8427;52.204;7.202;2023-04-06T00:56:24;45.70;;;40.25;;
16626;SDS011;8427;52.204;7.202;2023-04-06T00:58:53;43.55;;;39.53;;
16626;SDS011;8427;52.204;7.202;2023-04-06T01:01:22;45.20;;;40.20;;
16626;SDS011;8427;52.204;7.202;2023-04-06T01:03:51;44.45;;;39.70;;
16626;SDS011;8427;52.204;7.202;2023-04-06T01:06:20;41.03;;;37.50;;
16626;SDS011;8427;52.204;7.202;2023-04-06T01:08:48;58.10;;;40.42;;
16626;SDS011;8427;52.204;7.202;2023-04-06T01:11:17;49.50;;;40.17;;
16626;SDS011;8427;52.204;7.202;2023-04-06T01:13:45;43.30;;;38.80;;
16626;SDS011;8427;52.204;7.202;2023-04-06T01:16:13;44.33;;;39.83;;
16626;SDS011;8427;52.204;7.202;2023-04-06T01:18:43;65.05;;;41.25;;
16626;SDS011;8427;52.204;7.202;2023-04-06T01:21:11;48.72;;;40.20;;
16626;SDS011;8427;52.204;7.202;2023-04-06T01:23:43;50.80;;;40.30;;
16626;SDS011;8427;52.204;7.202;2023-04-06T01:26:12;46.90;;;39.90;;
16626;SDS011;8427;52.204;7.202;2023-04-06T01:28:41;44.20;;;39.50;;
16626;SDS011;8427;52.204;7.202;2023-04-06T01:31:10;60.73;;;40.83;;
16626;SDS011;8427;52.204;7.202;2023-04-06T01:33:38;43.70;;;39.30;;
16626;SDS011;8427;52.204;7.202;2023-04-06T01:36:06;53.00;;;39.80;;
16626;SDS011;8427;52.204;7.202;2023-04-06T01:38:35;47.67;;;39.97;;
16626;SDS011;8427;52.204;7.202;2023-04-06T01:41:04;39.93;;;36.90;;
16626;SDS011;8427;52.204;7.202;2023-04-06T01:43:32;41.78;;;37.97;;
16626;SDS011;8427;52.204;7.202;2023-04-06T01:46:00;48.63;;;40.00;;
16626;SDS011;8427;52.204;7.202;2023-04-06T01:48:29;62.22;;;40.95;;
16626;SDS011;8427;52.204;7.202;2023-04-06T01:50:57;47.53;;;39.90;;
16626;SDS011;8427;52.204;7.202;2023-04-06T01:53:25;52.42;;;39.65;;
16626;SDS011;8427;52.204;7.202;2023-04-06T01:55:53;52.20;;;40.20;;
16626;SDS011;8427;52.204;7.202;2023-04-06T01:58:22;56.40;;;40.63;;
16626;SDS011;8427;52.204;7.202;2023-04-06T02:00:50;54.20;;;38.50;;
16626;SDS011;8427;52.204;7.202;2023-04-06T02:03:18;51.43;;;38.33;;
16626;SDS011;8427;52.204;7.202;2023-04-06T02:05:46;51.58;;;39.63;;
16626;SDS011;8427;52.204;7.202;2023-04-06T02:08:14;43.83;;;39.30;;
16626;SDS011;8427;52.204;7.202;2023-04-06T02:10:42;59.45;;;40.30;;
16626;SDS011;8427;52.204;7.202;2023-04-06T02:13:10;60.00;;;40.70;;
16626;SDS011;8427;52.204;7.202;2023-04-06T02:15:39;69.63;;;41.27;;
16626;SDS011;8427;52.204;7.202;2023-04-06T02:18:07;44.70;;;39.63;;
16626;SDS011;8427;52.204;7.202;2023-04-06T02:20:36;50.78;;;40.38;;
16626;SDS011;8427;52.204;7.202;2023-04-06T02:23:04;56.78;;;40.55;;
16626;SDS011;8427;52.204;7.202;2023-04-06T02:25:32;43.10;;;39.20;;
16626;SDS011;8427;52.204;7.202;2023-04-06T02:28:00;43.40;;;38.90;;
16626;SDS011;8427;52.204;7.202;2023-04-06T02:30:28;52.45;;;40.15;;
16626;SDS011;8427;52.204;7.202;2023-04-06T02:32:59;59.50;;;40.53;;
16626;SDS011;8427;52.204;7.202;2023-04-06T02:35:27;44.20;;;39.50;;
16626;SDS011;8427;52.204;7.202;2023-04-06T02:37:56;48.60;;;39.70;;
16626;SDS011;8427;52.204;7.202;2023-04-06T02:40:24;47.50;;;39.87;;
16626;SDS011;8427;52.204;7.202;2023-04-06T02:42:52;54.90;;;40.30;;
16626;SDS011;8427;52.204;7.202;2023-04-06T02:45:20;62.70;;;41.08;;
16626;SDS011;8427;52.204;7.202;2023-04-06T02:47:48;43.40;;;38.95;;
16626;SDS011;8427;52.204;7.202;2023-04-06T02:50:18;44.05;;;39.45;;
16626;SDS011;8427;52.204;7.202;2023-04-06T02:52:46;56.50;;;40.25;;
16626;SDS011;8427;52.204;7.202;2023-04-06T02:55:13;41.53;;;37.60;;
16626;SDS011;8427;52.204;7.202;2023-04-06T02:57:42;43.60;;;39.15;;
16626;SDS011;8427;52.204;7.202;2023-04-06T03:00:10;42.80;;;38.80;;
16626;SDS011;8427;52.204;7.202;2023-04-06T03:02:39;52.00;;;40.10;;
16626;SDS011;8427;52.204;7.202;2023-04-06T03:05:07;45.20;;;39.83;;
16626;SDS011;8427;52.204;7.202;2023-04-06T03:07:36;44.55;;;39.75;;
16626;SDS011;8427;52.204;7.202;2023-04-06T03:10:05;45.00;;;39.92;;
16626;SDS011;8427;52.204;7.202;2023-04-06T03:12:33;50.25;;;40.20;;
16626;SDS011;8427;52.204;7.202;2023-04-06T03:15:01;44.65;;;39.30;;
16626;SDS011;8427;52.204;7.202;2023-04-06T03:17:29;43.65;;;39.13;;
16626;SDS011;8427;52.204;7.202;2023-04-06T03:19:57;44.35;;;39.42;;
16626;SDS011;8427;52.204;7.202;2023-04-06T03:22:25;54.10;;;40.22;;
16626;SDS011;8427;52.204;7.202;2023-04-06T03:24:55;52.03;;;40.08;;
16626;SDS011;8427;52.204;7.202;2023-04-06T03:27:23;44.35;;;39.63;;
16626;SDS011;8427;52.204;7.202;2023-04-06T03:29:51;42.90;;;38.95;;
16626;SDS011;8427;52.204;7.202;2023-04-06T03:32:19;72.00;;;41.30;;
16626;SDS011;8427;52.204;7.202;2023-04-06T03:34:47;45.65;;;39.78;;
16626;SDS011;8427;52.204;7.202;2023-04-06T03:37:15;44.75;;;40.00;;
16626;SDS011;8427;52.204;7.202;2023-04-06T03:39:43;45.38;;;39.72;;
16626;SDS011;8427;52.204;7.202;2023-04-06T03:42:12;59.95;;;40.50;;
16626;SDS011;8427;52.204;7.202;2023-04-06T03:44:40;42.70;;;39.00;;
16626;SDS011;8427;52.204;7.202;2023-04-06T03:47:08;60.70;;;40.93;;
16626;SDS011;8427;52.204;7.202;2023-04-06T03:49:36;43.65;;;39.38;;
16626;SDS011;8427;52.204;7.202;2023-04-06T03:52:05;47.63;;;39.35;;
16626;SDS011;8427;52.204;7.202;2023-04-06T03:54:33;43.37;;;39.20;;
16626;SDS011;8427;52.204;7.202;2023-04-06T03:57:02;57.90;;;40.60;;
16626;SDS011;8427;52.204;7.202;2023-04-06T03:59:32;45.17;;;39.75;;
16626;SDS011;8427;52.204;7.202;2023-04-06T04:02:00;53.10;;;39.80;;
16626;SDS011;8427;52.204;7.202;2023-04-06T04:04:28;43.85;;;39.15;;
16626;SDS011;8427;52.204;7.202;2023-04-06T04:06:56;43.95;;;39.33;;
16626;SDS011;8427;52.204;7.202;2023-04-06T04:09:24;43.35;;;39.05;;
16626;SDS011;8427;52.204;7.202;2023-04-06T04:11:55;50.88;;;39.60;;
16626;SDS011;8427;52.204;7.202;2023-04-06T04:14:23;49.33;;;40.00;;
16626;SDS011;8427;52.204;7.202;2023-04-06T04:16:52;44.25;;;39.50;;
16626;SDS011;8427;52.204;7.202;2023-04-06T04:19:21;45.30;;;39.60;;
16626;SDS011;8427;52.204;7.202;2023-04-06T04:21:48;59.00;;;40.40;;
16626;SDS011;8427;52.204;7.202;2023-04-06T04:24:16;46.05;;;39.47;;
16626;SDS011;8427;52.204;7.202;2023-04-06T04:26:44;47.67;;;39.67;;
16626;SDS011;8427;52.204;7.202;2023-04-06T04:29:12;43.90;;;39.40;;
16626;SDS011;8427;52.204;7.202;2023-04-06T04:31:41;50.78;;;40.03;;
16626;SDS011;8427;52.204;7.202;2023-04-06T04:34:10;44.17;;;39.42;;
16626;SDS011;8427;52.204;7.202;2023-04-06T04:36:39;62.17;;;40.78;;
16626;SDS011;8427;52.204;7.202;2023-04-06T04:39:08;44.10;;;39.30;;
16626;SDS011;8427;52.204;7.202;2023-04-06T04:41:36;43.70;;;39.30;;
16626;SDS011;8427;52.204;7.202;2023-04-06T04:44:04;45.95;;;39.80;;
16626;SDS011;8427;52.204;7.202;2023-04-06T04:46:32;45.80;;;39.72;;
16626;SDS011;8427;52.204;7.202;2023-04-06T04:49:00;43.50;;;39.20;;
16626;SDS011;8427;52.204;7.202;2023-04-06T04:51:29;47.58;;;39.85;;
16626;SDS011;8427;52.204;7.202;2023-04-06T04:53:59;42.75;;;38.25;;
16626;SDS011;8427;52.204;7.202;2023-04-06T04:56:26;52.10;;;39.90;;
16626;SDS011;8427;52.204;7.202;2023-04-06T04:58:55;42.90;;;39.00;;
16626;SDS011;8427;52.204;7.202;2023-04-06T05:01:23;49.00;;;39.80;;
16626;SDS011;8427;52.204;7.202;2023-04-06T05:03:51;42.85;;;38.83;;
16626;SDS011;8427;52.204;7.202;2023-04-06T05:06:19;57.78;;;40.60;;
16626;SDS011;8427;52.204;7.202;2023-04-06T05:08:49;45.20;;;39.50;;
16626;SDS011;8427;52.204;7.202;2023-04-06T05:11:17;71.80;;;41.28;;
16626;SDS011;8427;52.204;7.202;2023-04-06T05:13:45;70.85;;;41.17;;
16626;SDS011;8427;52.204;7.202;2023-04-06T05:16:13;55.13;;;40.17;;
16626;SDS011;8427;52.204;7.202;2023-04-06T05:18:41;65.97;;;41.10;;
16626;SDS011;8427;52.204;7.202;2023-04-06T05:21:09;71.57;;;41.20;;
16626;SDS011;8427;52.204;7.202;2023-04-06T05:23:39;44.30;;;39.05;;
16626;SDS011;8427;52.204;7.202;2023-04-06T05:26:08;42.60;;;38.70;;
16626;SDS011;8427;52.204;7.202;2023-04-06T05:28:36;43.97;;;39.40;;
16626;SDS011;8427;52.204;7.202;2023-04-06T05:31:04;55.78;;;40.50;;
16626;SDS011;8427;52.204;7.202;2023-04-06T05:33:32;43.10;;;39.20;;
16626;SDS011;8427;52.204;7.202;2023-04-06T05:36:00;44.67;;;39.77;;
16626;SDS011;8427;52.204;7.202;2023-04-06T05:38:29;60.15;;;40.78;;
16626;SDS011;8427;52.204;7.202;2023-04-06T05:40:59;44.13;;;39.55;;
16626;SDS011;8427;52.204;7.202;2023-04-06T05:43:28;42.88;;;39.00;;
16626;SDS011;8427;52.204;7.202;2023-04-06T05:45:56;44.50;;;39.80;;
16626;SDS011;8427;52.204;7.202;2023-04-06T05:48:24;44.42;;;39.72;;
16626;SDS011;8427;52.204;7.202;2023-04-06T05:50:52;43.15;;;39.20;;
16626;SDS011;8427;52.204;7.202;2023-04-06T05:53:20;49.55;;;40.20;;
16626;SDS011;8427;52.204;7.202;2023-04-06T05:55:48;45.28;;;40.00;;
16626;SDS011;8427;52.204;7.202;2023-04-06T05:58:16;43.40;;;39.20;;
16626;SDS011;8427;52.204;7.202;2023-04-06T06:00:46;43.03;;;39.13;;
16626;SDS011;8427;52.204;7.202;2023-04-06T06:03:14;43.08;;;39.28;;
16626;SDS011;8427;52.204;7.202;2023-04-06T06:05:42;43.60;;;39.50;;
16626;SDS011;8427;52.204;7.202;2023-04-06T06:08:10;47.90;;;40.20;;
16626;SDS011;8427;52.204;7.202;2023-04-06T06:10:40;44.00;;;39.70;;
16626;SDS011;8427;52.204;7.202;2023-04-06T06:13:09;42.80;;;39.20;;
16626;SDS011;8427;52.204;7.202;2023-04-06T06:15:37;44.25;;;40.00;;
16626;SDS011;8427;52.204;7.202;2023-04-06T06:18:06;43.60;;;39.60;;
16626;SDS011;8427;52.204;7.202;2023-04-06T06:20:34;44.00;;;39.83;;
16626;SDS011;8427;52.204;7.202;2023-04-06T06:23:02;42.63;;;39.20;;
16626;SDS011;8427;52.204;7.202;2023-04-06T06:25:32;44.67;;;40.20;;
16626;SDS011;8427;52.204;7.202;2023-04-06T06:28:00;43.90;;;39.80;;
16626;SDS011;8427;52.204;7.202;2023-04-06T06:30:28;43.20;;;39.50;;
16626;SDS011;8427;52.204;7.202;2023-04-06T06:32:56;44.63;;;39.92;;
16626;SDS011;8427;52.204;7.202;2023-04-06T06:35:25;44.03;;;39.83;;
16626;SDS011;8427;52.204;7.202;2023-04-06T06:37:53;45.00;;;40.40;;
16626;SDS011;8427;52.204;7.202;2023-04-06T06:40:21;44.10;;;39.90;;
16626;SDS011;8427;52.204;7.202;2023-04-06T06:42:52;44.20;;;40.10;;
16626;SDS011;8427;52.204;7.202;2023-04-06T06:45:20;44.67;;;40.17;;
16626;SDS011;8427;52.204;7.202;2023-04-06T06:47:48;43.50;;;39.77;;
16626;SDS011;8427;52.204;7.202;2023-04-06T06:50:20;44.50;;;40.30;;
16626;SDS011;8427;52.204;7.202;2023-04-06T06:52:49;60.80;;;41.50;;
16626;SDS011;8427;52.204;7.202;2023-04-06T06:55:17;45.10;;;40.50;;
16626;SDS011;8427;52.204;7.202;2023-04-06T06:57:46;44.80;;;40.40;;
16626;SDS011;8427;52.204;7.202;2023-04-06T07:00:14;44.72;;;40.33;;
16626;SDS011;8427;52.204;7.202;2023-04-06T07:02:42;47.00;;;40.80;;
16626;SDS011;8427;52.204;7.202;2023-04-06T07:05:11;44.90;;;40.40;;
16626;SDS011;8427;52.204;7.202;2023-04-06T07:07:54;44.13;;;40.20;;
16626;SDS011;8427;52.204;7.202;2023-04-06T07:10:22;48.30;;;41.20;;
16626;SDS011;8427;52.204;7.202;2023-04-06T07:12:50;44.78;;;40.53;;
16626;SDS011;8427;52.204;7.202;2023-04-06T07:15:18;45.67;;;40.80;;
16626;SDS011;8427;52.204;7.202;2023-04-06T07:17:47;44.80;;;40.60;;
16626;SDS011;8427;52.204;7.202;2023-04-06T07:20:15;51.90;;;41.47;;
16626;SDS011;8427;52.204;7.202;2023-04-06T07:22:43;45.20;;;40.80;;
16626;SDS011;8427;52.204;7.202;2023-04-06T07:25:13;44.87;;;40.60;;
16626;SDS011;8427;52.204;7.202;2023-04-06T07:27:41;44.42;;;40.50;;
16626;SDS011;8427;52.204;7.202;2023-04-06T07:30:09;45.47;;;40.97;;
16626;SDS011;8427;52.204;7.202;2023-04-06T07:32:37;53.25;;;41.88;;
16626;SDS011;8427;52.204;7.202;2023-04-06T07:35:06;54.83;;;42.00;;
16626;SDS011;8427;52.204;7.202;2023-04-06T07:37:34;45.72;;;41.17;;
16626;SDS011;8427;52.204;7.202;2023-04-06T07:40:02;46.10;;;41.30;;
16626;SDS011;8427;52.204;7.202;2023-04-06T07:42:32;52.53;;;41.97;;
16626;SDS011;8427;52.204;7.202;2023-04-06T07:45:00;56.08;;;42.33;;
16626;SDS011;8427;52.204;7.202;2023-04-06T07:47:28;46.30;;;41.40;;
16626;SDS011;8427;52.204;7.202;2023-04-06T07:49:56;57.13;;;42.53;;
16626;SDS011;8427;52.204;7.202;2023-04-06T07:52:24;47.60;;;41.60;;
16626;SDS011;8427;52.204;7.202;2023-04-06T07:54:52;45.30;;;41.10;;
16626;SDS011;8427;52.204;7.202;2023-04-06T07:57:20;45.90;;;41.40;;
16626;SDS011;8427;52.204;7.202;2023-04-06T07:59:50;45.90;;;41.47;;
16626;SDS011;8427;52.204;7.202;2023-04-06T08:02:18;53.00;;;42.30;;
16626;SDS011;8427;52.204;7.202;2023-04-06T08:04:46;46.85;;;41.85;;
16626;SDS011;8427;52.204;7.202;2023-04-06T08:07:15;45.90;;;41.45;;
16626;SDS011;8427;52.204;7.202;2023-04-06T08:09:43;46.60;;;41.83;;
16626;SDS011;8427;52.204;7.202;2023-04-06T08:12:11;50.60;;;42.23;;
16626;SDS011;8427;52.204;7.202;2023-04-06T08:14:39;46.95;;;41.97;;
16626;SDS011;8427;52.204;7.202;2023-04-06T08:17:08;46.80;;;42.00;;
16626;SDS011;8427;52.204;7.202;2023-04-06T08:19:36;46.80;;;42.00;;
16626;SDS011;8427;52.204;7.202;2023-04-06T08:22:04;50.00;;;42.23;;
16626;SDS011;8427;52.204;7.202;2023-04-06T08:24:32;47.10;;;42.10;;
16626;SDS011;8427;52.204;7.202;2023-04-06T08:27:00;51.97;;;42.78;;
16626;SDS011;8427;52.204;7.202;2023-04-06T08:29:29;46.58;;;41.88;;
16626;SDS011;8427;52.204;7.202;2023-04-06T08:31:57;46.17;;;41.85;;
16626;SDS011;8427;52.204;7.202;2023-04-06T08:34:26;46.83;;;42.08;;
16626;SDS011;8427;52.204;7.202;2023-04-06T08:36:54;49.92;;;42.53;;
16626;SDS011;8427;52.204;7.202;2023-04-06T08:39:22;46.30;;;41.90;;
16626;SDS011;8427;52.204;7.202;2023-04-06T08:41:52;49.20;;;42.60;;
16626;SDS011;8427;52.204;7.202;2023-04-06T08:44:23;47.10;;;42.40;;
16626;SDS011;8427;52.204;7.202;2023-04-06T08:46:51;47.27;;;42.50;;
16626;SDS011;8427;52.204;7.202;2023-04-06T08:49:20;47.45;;;42.45;;
16626;SDS011;8427;52.204;7.202;2023-04-06T08:51:49;47.25;;;42.47;;
16626;SDS011;8427;52.204;7.202;2023-04-06T08:54:18;47.50;;;42.70;;
16626;SDS011;8427;52.204;7.202;2023-04-06T08:56:46;47.27;;;42.67;;
16626;SDS011;8427;52.204;7.202;2023-04-06T08:59:15;47.35;;;42.78;;
16626;SDS011;8427;52.204;7.202;2023-04-06T09:01:44;48.53;;;43.40;;
16626;SDS011;8427;52.204;7.202;2023-04-06T09:04:13;48.63;;;43.40;;
16626;SDS011;8427;52.204;7.202;2023-04-06T09:06:42;58.95;;;44.20;;
16626;SDS011;8427;52.204;7.202;2023-04-06T09:09:12;49.00;;;43.70;;
16626;SDS011;8427;52.204;7.202;2023-04-06T09:11:43;58.90;;;44.40;;
16626;SDS011;8427;52.204;7.202;2023-04-06T09:14:13;49.05;;;43.80;;
16626;SDS011;8427;52.204;7.202;2023-04-06T09:16:41;48.20;;;43.40;;
16626;SDS011;8427;52.204;7.202;2023-04-06T09:19:11;48.25;;;43.55;;
16626;SDS011;8427;52.204;7.202;2023-04-06T09:21:40;51.10;;;44.10;;
16626;SDS011;8427;52.204;7.202;2023-04-06T09:24:08;48.70;;;43.50;;
16626;SDS011;8427;52.204;7.202;2023-04-06T09:26:47;50.05;;;44.00;;
16626;SDS011;8427;52.204;7.202;2023-04-06T09:29:22;49.50;;;44.10;;
16626;SDS011;8427;52.204;7.202;2023-04-06T09:31:52;65.25;;;45.47;;
16626;SDS011;8427;52.204;7.202;2023-04-06T09:34:29;48.63;;;43.83;;
16626;SDS011;8427;52.204;7.202;2023-04-06T09:36:57;52.65;;;44.75;;
16626;SDS011;8427;52.204;7.202;2023-04-06T09:39:25;51.40;;;44.60;;
16626;SDS011;8427;52.204;7.202;2023-04-06T09:41:55;67.72;;;46.13;;
16626;SDS011;8427;52.204;7.202;2023-04-06T09:44:23;53.25;;;45.17;;
16626;SDS011;8427;52.204;7.202;2023-04-06T09:46:52;56.35;;;45.90;;
16626;SDS011;8427;52.204;7.202;2023-04-06T09:49:27;63.55;;;46.60;;
16626;SDS011;8427;52.204;7.202;2023-04-06T09:51:59;78.43;;;47.85;;
16626;SDS011;8427;52.204;7.202;2023-04-06T09:54:29;59.00;;;46.30;;
16626;SDS011;8427;52.204;7.202;2023-04-06T09:57:01;51.10;;;45.50;;
16626;SDS011;8427;52.204;7.202;2023-04-06T09:59:42;54.10;;;45.70;;
16626;SDS011;8427;52.204;7.202;2023-04-06T10:02:18;76.50;;;47.60;;
16626;SDS011;8427;52.204;7.202;2023-04-06T10:04:54;52.70;;;45.80;;
16626;SDS011;8427;52.204;7.202;2023-04-06T10:07:29;63.40;;;46.92;;
16626;SDS011;8427;52.204;7.202;2023-04-06T10:09:58;50.73;;;45.13;;
16626;SDS011;8427;52.204;7.202;2023-04-06T10:12:29;70.10;;;46.63;;
16626;SDS011;8427;52.204;7.202;2023-04-06T10:14:57;56.60;;;45.60;;
16626;SDS011;8427;52.204;7.202;2023-04-06T10:17:26;52.45;;;45.40;;
16626;SDS011;8427;52.204;7.202;2023-04-06T10:19:55;50.60;;;45.10;;
16626;SDS011;8427;52.204;7.202;2023-04-06T10:22:29;72.57;;;46.88;;
16626;SDS011;8427;52.204;7.202;2023-04-06T10:25:03;50.92;;;45.38;;
16626;SDS011;8427;52.204;7.202;2023-04-06T10:27:33;52.45;;;45.55;;
16626;SDS011;8427;52.204;7.202;2023-04-06T10:30:02;50.90;;;45.35;;
16626;SDS011;8427;52.204;7.202;2023-04-06T10:32:32;90.22;;;47.85;;
16626;SDS011;8427;52.204;7.202;2023-04-06T10:35:05;52.50;;;45.60;;
16626;SDS011;8427;52.204;7.202;2023-04-06T10:37:47;94.15;;;48.40;;
16626;SDS011;8427;52.204;7.202;2023-04-06T10:40:21;101.10;;;48.90;;
16626;SDS011;8427;52.204;7.202;2023-04-06T10:42:53;60.28;;;46.13;;
16626;SDS011;8427;52.204;7.202;2023-04-06T10:45:23;68.88;;;46.88;;
16626;SDS011;8427;52.204;7.202;2023-04-06T10:47:52;59.65;;;46.20;;
16626;SDS011;8427;52.204;7.202;2023-04-06T10:50:21;76.60;;;47.30;;
16626;SDS011;8427;52.204;7.202;2023-04-06T10:53:00;71.07;;;46.50;;
16626;SDS011;8427;52.204;7.202;2023-04-06T10:55:29;84.55;;;47.65;;
16626;SDS011;8427;52.204;7.202;2023-04-06T10:58:00;77.70;;;47.40;;
16626;SDS011;8427;52.204;7.202;2023-04-06T11:00:28;56.90;;;45.80;;
16626;SDS011;8427;52.204;7.202;2023-04-06T11:03:14;78.10;;;47.60;;
16626;SDS011;8427;52.204;7.202;2023-04-06T11:05:43;68.83;;;47.00;;
16626;SDS011;8427;52.204;7.202;2023-04-06T11:08:22;63.00;;;46.40;;
16626;SDS011;8427;52.204;7.202;2023-04-06T11:10:50;50.50;;;45.20;;
16626;SDS011;8427;52.204;7.202;2023-04-06T11:13:20;51.38;;;45.55;;
16626;SDS011;8427;52.204;7.202;2023-04-06T11:15:48;50.70;;;45.40;;
16626;SDS011;8427;52.204;7.202;2023-04-06T11:18:17;58.60;;;46.38;;
16626;SDS011;8427;52.204;7.202;2023-04-06T11:20:47;50.78;;;45.50;;
16626;SDS011;8427;52.204;7.202;2023-04-06T11:23:22;50.72;;;45.40;;
16626;SDS011;8427;52.204;7.202;2023-04-06T11:25:51;51.30;;;45.70;;
16626;SDS011;8427;52.204;7.202;2023-04-06T11:28:21;58.35;;;46.22;;
16626;SDS011;8427;52.204;7.202;2023-04-06T11:30:49;60.63;;;46.50;;
16626;SDS011;8427;52.204;7.202;2023-04-06T11:33:20;51.63;;;45.93;;
16626;SDS011;8427;52.204;7.202;2023-04-06T11:35:48;51.00;;;45.60;;
16626;SDS011;8427;52.204;7.202;2023-04-06T11:38:17;58.80;;;46.38;;
16626;SDS011;8427;52.204;7.202;2023-04-06T11:40:46;52.40;;;46.00;;
16626;SDS011;8427;52.204;7.202;2023-04-06T11:43:14;58.97;;;46.50;;
16626;SDS011;8427;52.204;7.202;2023-04-06T11:45:43;73.82;;;47.95;;
16626;SDS011;8427;52.204;7.202;2023-04-06T11:48:17;60.83;;;47.20;;
16626;SDS011;8427;52.204;7.202;2023-04-06T11:50:46;54.15;;;46.33;;
16626;SDS011;8427;52.204;7.202;2023-04-06T11:53:22;52.38;;;46.20;;
16626;SDS011;8427;52.204;7.202;2023-04-06T11:55:50;54.65;;;46.50;;
16626;SDS011;8427;52.204;7.202;2023-04-06T11:58:18;56.58;;;46.83;;
16626;SDS011;8427;52.204;7.202;2023-04-06T12:00:48;63.80;;;47.45;;
16626;SDS011;8427;52.204;7.202;2023-04-06T12:03:16;70.60;;;48.13;;
16626;SDS011;8427;52.204;7.202;2023-04-06T12:05:44;64.78;;;48.10;;
16626;SDS011;8427;52.204;7.202;2023-04-06T12:08:12;66.85;;;48.00;;
16626;SDS011;8427;52.204;7.202;2023-04-06T12:10:40;65.80;;;48.00;;
16626;SDS011;8427;52.204;7.202;2023-04-06T12:13:08;62.20;;;47.30;;
16626;SDS011;8427;52.204;7.202;2023-04-06T12:15:36;53.50;;;46.63;;
16626;SDS011;8427;52.204;7.202;2023-04-06T12:18:06;61.85;;;47.22;;
16626;SDS011;8427;52.204;7.202;2023-04-06T12:20:34;55.03;;;46.80;;
16626;SDS011;8427;52.204;7.202;2023-04-06T12:23:02;61.10;;;47.30;;
16626;SDS011;8427;52.204;7.202;2023-04-06T12:25:30;54.20;;;46.60;;
16626;SDS011;8427;52.204;7.202;2023-04-06T12:27:58;70.38;;;47.80;;
16626;SDS011;8427;52.204;7.202;2023-04-06T12:30:26;71.37;;;47.87;;
16626;SDS011;8427;52.204;7.202;2023-04-06T12:32:54;82.57;;;48.63;;
16626;SDS011;8427;52.204;7.202;2023-04-06T12:35:24;65.38;;;47.58;;
16626;SDS011;8427;52.204;7.202;2023-04-06T12:37:52;61.30;;;46.97;;
16626;SDS011;8427;52.204;7.202;2023-04-06T12:40:20;76.40;;;48.10;;
16626;SDS011;8427;52.204;7.202;2023-04-06T12:42:48;69.30;;;47.47;;
16626;SDS011;8427;52.204;7.202;2023-04-06T12:45:16;57.22;;;46.60;;
16626;SDS011;8427;52.204;7.202;2023-04-06T12:47:44;74.55;;;47.90;;
16626;SDS011;8427;52.204;7.202;2023-04-06T12:50:12;58.10;;;46.65;;
16626;SDS011;8427;52.204;7.202;2023-04-06T12:52:42;70.22;;;47.75;;
16626;SDS011;8427;52.204;7.202;2023-04-06T12:55:10;61.65;;;47.20;;
16626;SDS011;8427;52.204;7.202;2023-04-06T12:57:38;76.00;;;48.20;;
16626;SDS011;8427;52.204;7.202;2023-04-06T13:00:06;64.13;;;47.45;;
16626;SDS011;8427;52.204;7.202;2023-04-06T13:02:36;78.63;;;48.60;;
16626;SDS011;8427;52.204;7.202;2023-04-06T13:05:04;68.25;;;47.80;;
16626;SDS011;8427;52.204;7.202;2023-04-06T13:07:32;104.03;;;50.43;;
16626;SDS011;8427;52.204;7.202;2023-04-06T13:10:02;62.28;;;47.40;;
16626;SDS011;8427;52.204;7.202;2023-04-06T13:12:30;92.03;;;49.80;;
16626;SDS011;8427;52.204;7.202;2023-04-06T13:14:58;84.55;;;48.63;;
16626;SDS011;8427;52.204;7.202;2023-04-06T13:17:27;71.32;;;48.05;;
16626;SDS011;8427;52.204;7.202;2023-04-06T13:19:55;67.68;;;47.92;;
16626;SDS011;8427;52.204;7.202;2023-04-06T13:22:23;72.53;;;48.10;;
16626;SDS011;8427;52.204;7.202;2023-04-06T13:24:51;56.50;;;47.00;;
16626;SDS011;8427;52.204;7.202;2023-04-06T13:27:20;89.13;;;49.33;;
16626;SDS011;8427;52.204;7.202;2023-04-06T13:29:48;71.07;;;47.63;;
16626;SDS011;8427;52.204;7.202;2023-04-06T13:32:16;82.70;;;48.50;;
16626;SDS011;8427;52.204;7.202;2023-04-06T13:34:44;72.70;;;47.90;;
16626;SDS011;8427;52.204;7.202;2023-04-06T13:37:14;67.00;;;47.60;;
16626;SDS011;8427;52.204;7.202;2023-04-06T13:39:43;62.97;;;47.10;;
16626;SDS011;8427;52.204;7.202;2023-04-06T13:42:11;68.90;;;47.50;;
16626;SDS011;8427;52.204;7.202;2023-04-06T13:44:40;84.30;;;48.70;;
16626;SDS011;8427;52.204;7.202;2023-04-06T13:47:08;68.32;;;47.85;;
16626;SDS011;8427;52.204;7.202;2023-04-06T13:49:36;78.18;;;48.35;;
16626;SDS011;8427;52.204;7.202;2023-04-06T13:52:04;62.05;;;47.20;;
16626;SDS011;8427;52.204;7.202;2023-04-06T13:54:32;63.33;;;47.07;;
16626;SDS011;8427;52.204;7.202;2023-04-06T13:57:00;58.08;;;46.58;;
16626;SDS011;8427;52.204;7.202;2023-04-06T13:59:31;55.75;;;46.40;;
16626;SDS011;8427;52.204;7.202;2023-04-06T14:02:01;69.35;;;47.40;;
16626;SDS011;8427;52.204;7.202;2023-04-06T14:04:29;66.38;;;47.03;;
16626;SDS011;8427;52.204;7.202;2023-04-06T14:06:57;64.60;;;46.60;;
16626;SDS011;8427;52.204;7.202;2023-04-06T14:09:26;61.83;;;46.50;;
16626;SDS011;8427;52.204;7.202;2023-04-06T14:11:54;69.35;;;47.20;;
16626;SDS011;8427;52.204;7.202;2023-04-06T14:14:23;57.10;;;46.20;;
16626;SDS011;8427;52.204;7.202;2023-04-06T14:16:52;60.95;;;46.65;;
16626;SDS011;8427;52.204;7.202;2023-04-06T14:19:22;62.58;;;46.97;;
16626;SDS011;8427;52.204;7.202;2023-04-06T14:21:49;53.30;;;46.10;;
16626;SDS011;8427;52.204;7.202;2023-04-06T14:24:17;54.50;;;46.10;;
16626;SDS011;8427;52.204;7.202;2023-04-06T14:26:46;69.40;;;47.10;;
16626;SDS011;8427;52.204;7.202;2023-04-06T14:29:14;60.20;;;46.20;;
16626;SDS011;8427;52.204;7.202;2023-04-06T14:31:44;60.10;;;46.60;;
16626;SDS011;8427;52.204;7.202;2023-04-06T14:34:14;64.80;;;46.80;;
16626;SDS011;8427;52.204;7.202;2023-04-06T14:36:44;62.88;;;46.63;;
16626;SDS011;8427;52.204;7.202;2023-04-06T14:39:12;61.38;;;46.50;;
16626;SDS011;8427;52.204;7.202;2023-04-06T14:41:40;67.40;;;46.90;;
16626;SDS011;8427;52.204;7.202;2023-04-06T14:44:08;69.40;;;47.30;;